sensor_id;sensor_type;location;lat;lon;timestamp;temperature;humidity
69324;DHT22;56470;47.350;8.718;2024-02-23T00:01:57;8.28;75.24
69324;DHT22;56470;47.350;8.718;2024-02-23T00:11:05;8.25;72.69
69324;DHT22;56470;47.350;8.718;2024-02-23T00:17:09;8.36;74.66
69324;DHT22;56470;47.350;8.718;2024-02-23T00:30:22;8.39;73.91
69324;DHT22;56470;47.350;8.718;2024-02-23T00:36:46;8.45;72.68
69324;DHT22;56470;47.350;8.718;2024-02-23T00:50:22;8.40;71.37
69324;DHT22;56470;47.350;8.718;2024-02-23T00:53:56;8.48;71.11
69324;DHT22;56470;47.350;8.718;2024-02-23T01:01:02;8.61;72.40
69324;DHT22;56470;47.350;8.718;2024-02-23T01:14:51;8.64;73.02
69324;DHT22;56470;47.350;8.718;2024-02-23T01:21:37;8.67;71.90
69324;DHT22;56470;47.350;8.718;2024-02-23T01:27:43;8.66;72.09
69324;DHT22;56470;47.350;8.718;2024-02-23T01:30:43;8.64;71.03
69324;DHT22;56470;47.350;8.718;2024-02-23T01:33:34;8.66;71.57
69324;DHT22;56470;47.350;8.718;2024-02-23T01:36:04;8.66;71.08
69324;DHT22;56470;47.350;8.718;2024-02-23T01:42:04;8.63;67.92
69324;DHT22;56470;47.350;8.718;2024-02-23T01:44:52;8.67;70.91
69324;DHT22;56470;47.350;8.718;2024-02-23T01:47:49;8.67;71.22
69324;DHT22;56470;47.350;8.718;2024-02-23T01:50:14;8.67;71.79
69324;DHT22;56470;47.350;8.718;2024-02-23T01:53:03;8.56;71.61
69324;DHT22;56470;47.350;8.718;2024-02-23T01:56:07;8.31;72.14
69324;DHT22;56470;47.350;8.718;2024-02-23T02:02:25;7.86;73.45
69324;DHT22;56470;47.350;8.718;2024-02-23T02:05:04;7.71;73.98
69324;DHT22;56470;47.350;8.718;2024-02-23T02:07:50;7.66;74.71
69324;DHT22;56470;47.350;8.718;2024-02-23T02:10:44;7.67;74.77
69324;DHT22;56470;47.350;8.718;2024-02-23T02:13:24;7.52;74.61
69324;DHT22;56470;47.350;8.718;2024-02-23T02:15:52;7.48;75.23
69324;DHT22;56470;47.350;8.718;2024-02-23T02:21:38;7.46;75.16
69324;DHT22;56470;47.350;8.718;2024-02-23T02:24:09;7.45;74.80
69324;DHT22;56470;47.350;8.718;2024-02-23T02:27:01;7.42;74.75
69324;DHT22;56470;47.350;8.718;2024-02-23T02:32:23;7.45;74.85
69324;DHT22;56470;47.350;8.718;2024-02-23T02:34:56;7.43;75.29
69324;DHT22;56470;47.350;8.718;2024-02-23T02:43:34;7.56;75.42
69324;DHT22;56470;47.350;8.718;2024-02-23T02:46:27;7.56;74.93
69324;DHT22;56470;47.350;8.718;2024-02-23T02:49:18;7.58;75.38
69324;DHT22;56470;47.350;8.718;2024-02-23T02:51:55;7.55;74.72
69324;DHT22;56470;47.350;8.718;2024-02-23T02:54:43;7.63;75.42
69324;DHT22;56470;47.350;8.718;2024-02-23T02:57:37;7.66;75.03
69324;DHT22;56470;47.350;8.718;2024-02-23T03:03:28;7.77;74.53
69324;DHT22;56470;47.350;8.718;2024-02-23T03:06:14;7.81;75.48
69324;DHT22;56470;47.350;8.718;2024-02-23T03:08:52;7.86;75.54
69324;DHT22;56470;47.350;8.718;2024-02-23T03:11:52;7.93;76.10
69324;DHT22;56470;47.350;8.718;2024-02-23T03:15:05;7.98;75.37
69324;DHT22;56470;47.350;8.718;2024-02-23T03:20:56;8.02;75.07
69324;DHT22;56470;47.350;8.718;2024-02-23T03:23:38;8.02;74.87
69324;DHT22;56470;47.350;8.718;2024-02-23T03:29:47;7.88;74.36
69324;DHT22;56470;47.350;8.718;2024-02-23T03:32:48;7.65;74.51
69324;DHT22;56470;47.350;8.718;2024-02-23T03:45:18;7.35;75.57
69324;DHT22;56470;47.350;8.718;2024-02-23T03:50:49;7.39;75.73
69324;DHT22;56470;47.350;8.718;2024-02-23T03:56:28;7.52;76.11
69324;DHT22;56470;47.350;8.718;2024-02-23T04:02:23;7.69;77.32
69324;DHT22;56470;47.350;8.718;2024-02-23T04:05:05;7.76;76.78
69324;DHT22;56470;47.350;8.718;2024-02-23T04:07:56;7.78;75.92
69324;DHT22;56470;47.350;8.718;2024-02-23T04:10:40;7.74;75.48
69324;DHT22;56470;47.350;8.718;2024-02-23T04:16:41;7.71;74.41
69324;DHT22;56470;47.350;8.718;2024-02-23T04:22:37;7.60;73.34
69324;DHT22;56470;47.350;8.718;2024-02-23T04:25:35;7.56;72.77
69324;DHT22;56470;47.350;8.718;2024-02-23T04:28:30;7.63;74.48
69324;DHT22;56470;47.350;8.718;2024-02-23T04:31:23;7.62;73.34
69324;DHT22;56470;47.350;8.718;2024-02-23T04:34:05;7.62;73.70
69324;DHT22;56470;47.350;8.718;2024-02-23T04:45:49;7.49;73.57
69324;DHT22;56470;47.350;8.718;2024-02-23T04:48:33;7.49;72.59
69324;DHT22;56470;47.350;8.718;2024-02-23T04:51:10;7.48;72.69
69324;DHT22;56470;47.350;8.718;2024-02-23T04:54:01;7.48;71.17
69324;DHT22;56470;47.350;8.718;2024-02-23T04:57:03;7.49;73.18
69324;DHT22;56470;47.350;8.718;2024-02-23T05:03:21;7.55;71.02
69324;DHT22;56470;47.350;8.718;2024-02-23T05:19:28;7.62;72.32
69324;DHT22;56470;47.350;8.718;2024-02-23T05:22:28;7.62;72.89
69324;DHT22;56470;47.350;8.718;2024-02-23T05:32:28;7.69;71.87
69324;DHT22;56470;47.350;8.718;2024-02-23T05:35:14;7.67;72.54
69324;DHT22;56470;47.350;8.718;2024-02-23T05:38:11;7.69;72.07
69324;DHT22;56470;47.350;8.718;2024-02-23T05:40:48;7.73;73.06
69324;DHT22;56470;47.350;8.718;2024-02-23T05:43:16;7.77;73.65
69324;DHT22;56470;47.350;8.718;2024-02-23T05:45:47;7.78;73.33
69324;DHT22;56470;47.350;8.718;2024-02-23T05:48:15;7.80;73.59
69324;DHT22;56470;47.350;8.718;2024-02-23T05:50:50;7.84;72.81
69324;DHT22;56470;47.350;8.718;2024-02-23T06:00:25;7.74;72.42
69324;DHT22;56470;47.350;8.718;2024-02-23T06:03:07;7.70;72.13
69324;DHT22;56470;47.350;8.718;2024-02-23T06:06:57;7.65;71.98
69324;DHT22;56470;47.350;8.718;2024-02-23T06:09:38;7.58;71.70
69324;DHT22;56470;47.350;8.718;2024-02-23T06:12:04;7.50;71.27
69324;DHT22;56470;47.350;8.718;2024-02-23T06:14:33;7.43;71.95
69324;DHT22;56470;47.350;8.718;2024-02-23T06:16:58;7.45;72.54
69324;DHT22;56470;47.350;8.718;2024-02-23T06:19:24;7.43;72.14
69324;DHT22;56470;47.350;8.718;2024-02-23T06:21:49;7.42;72.13
69324;DHT22;56470;47.350;8.718;2024-02-23T06:24:16;7.39;71.64
69324;DHT22;56470;47.350;8.718;2024-02-23T06:26:41;7.43;71.96
69324;DHT22;56470;47.350;8.718;2024-02-23T06:29:07;7.43;71.11
69324;DHT22;56470;47.350;8.718;2024-02-23T06:31:39;7.46;71.26
69324;DHT22;56470;47.350;8.718;2024-02-23T06:34:05;7.50;71.13
69324;DHT22;56470;47.350;8.718;2024-02-23T06:36:30;7.50;71.38
69324;DHT22;56470;47.350;8.718;2024-02-23T06:38:56;7.53;71.05
69324;DHT22;56470;47.350;8.718;2024-02-23T06:41:23;7.53;71.32
69324;DHT22;56470;47.350;8.718;2024-02-23T06:43:48;7.56;72.63
69324;DHT22;56470;47.350;8.718;2024-02-23T06:46:14;7.55;70.58
69324;DHT22;56470;47.350;8.718;2024-02-23T06:48:39;7.53;70.00
69324;DHT22;56470;47.350;8.718;2024-02-23T06:51:05;7.53;70.99
69324;DHT22;56470;47.350;8.718;2024-02-23T06:53:31;7.52;69.94
69324;DHT22;56470;47.350;8.718;2024-02-23T06:55:57;7.50;68.87
69324;DHT22;56470;47.350;8.718;2024-02-23T06:58:24;7.53;70.71
69324;DHT22;56470;47.350;8.718;2024-02-23T07:00:49;7.52;69.86
69324;DHT22;56470;47.350;8.718;2024-02-23T07:03:14;7.49;69.71
69324;DHT22;56470;47.350;8.718;2024-02-23T07:05:40;7.49;70.76
69324;DHT22;56470;47.350;8.718;2024-02-23T07:08:07;7.59;71.79
69324;DHT22;56470;47.350;8.718;2024-02-23T07:10:33;7.55;69.31
69324;DHT22;56470;47.350;8.718;2024-02-23T07:12:58;7.56;70.34
69324;DHT22;56470;47.350;8.718;2024-02-23T07:15:23;7.52;69.50
69324;DHT22;56470;47.350;8.718;2024-02-23T07:17:49;7.50;70.19
69324;DHT22;56470;47.350;8.718;2024-02-23T07:20:15;7.52;69.26
69324;DHT22;56470;47.350;8.718;2024-02-23T07:22:44;7.50;69.71
69324;DHT22;56470;47.350;8.718;2024-02-23T07:25:10;7.53;69.64
69324;DHT22;56470;47.350;8.718;2024-02-23T07:27:35;7.55;69.84
69324;DHT22;56470;47.350;8.718;2024-02-23T07:30:01;7.59;70.42
69324;DHT22;56470;47.350;8.718;2024-02-23T07:32:28;7.59;69.54
69324;DHT22;56470;47.350;8.718;2024-02-23T07:34:55;7.60;70.75
69324;DHT22;56470;47.350;8.718;2024-02-23T07:37:20;7.66;71.29
69324;DHT22;56470;47.350;8.718;2024-02-23T07:39:48;7.69;69.44
69324;DHT22;56470;47.350;8.718;2024-02-23T07:42:20;7.70;71.48
69324;DHT22;56470;47.350;8.718;2024-02-23T07:44:46;7.70;70.13
69324;DHT22;56470;47.350;8.718;2024-02-23T07:47:12;7.73;68.42
69324;DHT22;56470;47.350;8.718;2024-02-23T07:49:37;7.66;68.91
69324;DHT22;56470;47.350;8.718;2024-02-23T07:52:03;7.66;68.84
69324;DHT22;56470;47.350;8.718;2024-02-23T07:54:29;7.67;68.63
69324;DHT22;56470;47.350;8.718;2024-02-23T07:56:54;7.67;68.28
69324;DHT22;56470;47.350;8.718;2024-02-23T07:59:22;7.70;69.25
69324;DHT22;56470;47.350;8.718;2024-02-23T08:01:48;7.70;68.66
69324;DHT22;56470;47.350;8.718;2024-02-23T08:04:13;7.70;69.04
69324;DHT22;56470;47.350;8.718;2024-02-23T08:06:42;7.67;67.27
69324;DHT22;56470;47.350;8.718;2024-02-23T08:09:08;7.67;66.71
69324;DHT22;56470;47.350;8.718;2024-02-23T08:11:33;7.66;66.73
69324;DHT22;56470;47.350;8.718;2024-02-23T08:13:59;7.66;66.50
69324;DHT22;56470;47.350;8.718;2024-02-23T08:16:24;7.66;68.29
69324;DHT22;56470;47.350;8.718;2024-02-23T08:18:55;7.69;67.28
69324;DHT22;56470;47.350;8.718;2024-02-23T08:21:20;7.70;66.02
69324;DHT22;56470;47.350;8.718;2024-02-23T08:23:46;7.76;68.32
69324;DHT22;56470;47.350;8.718;2024-02-23T08:26:12;7.77;67.12
69324;DHT22;56470;47.350;8.718;2024-02-23T08:28:37;7.78;67.95
69324;DHT22;56470;47.350;8.718;2024-02-23T08:31:03;7.80;65.87
69324;DHT22;56470;47.350;8.718;2024-02-23T08:33:28;7.83;67.06
69324;DHT22;56470;47.350;8.718;2024-02-23T08:35:54;7.84;66.64
69324;DHT22;56470;47.350;8.718;2024-02-23T08:38:19;7.86;67.60
69324;DHT22;56470;47.350;8.718;2024-02-23T08:40:44;7.88;66.94
69324;DHT22;56470;47.350;8.718;2024-02-23T08:43:13;7.90;67.81
69324;DHT22;56470;47.350;8.718;2024-02-23T08:45:38;7.93;67.44
69324;DHT22;56470;47.350;8.718;2024-02-23T08:48:04;7.90;66.62
69324;DHT22;56470;47.350;8.718;2024-02-23T08:50:32;7.97;67.42
69324;DHT22;56470;47.350;8.718;2024-02-23T08:52:57;7.98;67.47
69324;DHT22;56470;47.350;8.718;2024-02-23T08:55:23;8.01;66.70
69324;DHT22;56470;47.350;8.718;2024-02-23T08:57:48;7.99;67.15
69324;DHT22;56470;47.350;8.718;2024-02-23T09:00:14;8.04;67.34
69324;DHT22;56470;47.350;8.718;2024-02-23T09:02:40;8.05;67.16
69324;DHT22;56470;47.350;8.718;2024-02-23T09:05:07;8.05;66.43
69324;DHT22;56470;47.350;8.718;2024-02-23T09:07:33;8.08;66.94
69324;DHT22;56470;47.350;8.718;2024-02-23T09:09:58;8.06;65.56
69324;DHT22;56470;47.350;8.718;2024-02-23T09:12:23;8.06;65.66
69324;DHT22;56470;47.350;8.718;2024-02-23T09:14:49;8.05;64.47
69324;DHT22;56470;47.350;8.718;2024-02-23T09:17:14;8.06;64.97
69324;DHT22;56470;47.350;8.718;2024-02-23T09:19:40;8.04;64.85
69324;DHT22;56470;47.350;8.718;2024-02-23T09:22:05;8.04;62.88
69324;DHT22;56470;47.350;8.718;2024-02-23T09:24:31;7.99;63.46
69324;DHT22;56470;47.350;8.718;2024-02-23T09:26:56;8.01;64.43
69324;DHT22;56470;47.350;8.718;2024-02-23T09:29:21;8.01;62.79
69324;DHT22;56470;47.350;8.718;2024-02-23T09:31:48;8.05;65.48
69324;DHT22;56470;47.350;8.718;2024-02-23T09:34:14;8.09;65.62
69324;DHT22;56470;47.350;8.718;2024-02-23T09:36:39;8.11;62.75
69324;DHT22;56470;47.350;8.718;2024-02-23T09:39:04;8.14;64.19
69324;DHT22;56470;47.350;8.718;2024-02-23T09:41:30;8.12;62.66
69324;DHT22;56470;47.350;8.718;2024-02-23T09:43:58;8.12;62.67
69324;DHT22;56470;47.350;8.718;2024-02-23T09:46:25;8.11;63.66
69324;DHT22;56470;47.350;8.718;2024-02-23T09:48:54;8.15;63.50
69324;DHT22;56470;47.350;8.718;2024-02-23T09:51:20;8.18;64.79
69324;DHT22;56470;47.350;8.718;2024-02-23T09:53:49;8.14;64.06
69324;DHT22;56470;47.350;8.718;2024-02-23T09:56:15;8.06;61.81
69324;DHT22;56470;47.350;8.718;2024-02-23T09:58:42;8.01;61.31
69324;DHT22;56470;47.350;8.718;2024-02-23T10:01:12;7.98;63.22
69324;DHT22;56470;47.350;8.718;2024-02-23T10:03:38;7.97;61.37
69324;DHT22;56470;47.350;8.718;2024-02-23T10:06:04;7.99;62.11
69324;DHT22;56470;47.350;8.718;2024-02-23T10:08:30;8.04;63.26
69324;DHT22;56470;47.350;8.718;2024-02-23T10:10:56;8.09;63.72
69324;DHT22;56470;47.350;8.718;2024-02-23T10:13:22;8.11;61.22
69324;DHT22;56470;47.350;8.718;2024-02-23T10:15:52;8.16;63.10
69324;DHT22;56470;47.350;8.718;2024-02-23T10:18:19;8.22;64.24
69324;DHT22;56470;47.350;8.718;2024-02-23T10:20:44;8.29;64.31
69324;DHT22;56470;47.350;8.718;2024-02-23T10:23:10;8.32;62.16
69324;DHT22;56470;47.350;8.718;2024-02-23T10:25:36;8.35;61.81
69324;DHT22;56470;47.350;8.718;2024-02-23T10:28:03;8.39;63.75
69324;DHT22;56470;47.350;8.718;2024-02-23T10:30:37;8.40;63.23
69324;DHT22;56470;47.350;8.718;2024-02-23T10:33:05;8.38;62.99
69324;DHT22;56470;47.350;8.718;2024-02-23T10:35:31;8.39;63.00
69324;DHT22;56470;47.350;8.718;2024-02-23T10:38:05;8.36;63.26
69324;DHT22;56470;47.350;8.718;2024-02-23T10:40:35;8.35;63.31
69324;DHT22;56470;47.350;8.718;2024-02-23T10:43:07;8.25;60.80
69324;DHT22;56470;47.350;8.718;2024-02-23T10:45:36;8.15;60.87
69324;DHT22;56470;47.350;8.718;2024-02-23T10:48:07;8.01;61.01
69324;DHT22;56470;47.350;8.718;2024-02-23T10:51:02;7.87;57.42
69324;DHT22;56470;47.350;8.718;2024-02-23T10:53:28;7.94;60.86
69324;DHT22;56470;47.350;8.718;2024-02-23T10:55:57;7.94;61.17
69324;DHT22;56470;47.350;8.718;2024-02-23T10:58:25;7.93;61.37
69324;DHT22;56470;47.350;8.718;2024-02-23T11:00:50;7.88;60.68
69324;DHT22;56470;47.350;8.718;2024-02-23T11:03:17;7.84;60.39
69324;DHT22;56470;47.350;8.718;2024-02-23T11:05:47;7.84;60.29
69324;DHT22;56470;47.350;8.718;2024-02-23T11:12:03;7.84;60.72
69324;DHT22;56470;47.350;8.718;2024-02-23T11:14:35;7.78;60.25
69324;DHT22;56470;47.350;8.718;2024-02-23T11:17:49;7.83;60.10
69324;DHT22;56470;47.350;8.718;2024-02-23T11:20:14;7.84;60.57
69324;DHT22;56470;47.350;8.718;2024-02-23T11:22:40;7.87;61.09
69324;DHT22;56470;47.350;8.718;2024-02-23T11:25:08;7.94;61.91
69324;DHT22;56470;47.350;8.718;2024-02-23T11:27:35;7.97;62.26
69324;DHT22;56470;47.350;8.718;2024-02-23T11:30:03;7.98;61.30
69324;DHT22;56470;47.350;8.718;2024-02-23T11:32:48;7.94;60.13
69324;DHT22;56470;47.350;8.718;2024-02-23T11:35:15;7.99;62.26
69324;DHT22;56470;47.350;8.718;2024-02-23T11:37:53;7.99;60.31
69324;DHT22;56470;47.350;8.718;2024-02-23T11:40:34;8.02;60.62
69324;DHT22;56470;47.350;8.718;2024-02-23T11:46:31;8.18;62.01
69324;DHT22;56470;47.350;8.718;2024-02-23T11:48:57;8.18;60.82
69324;DHT22;56470;47.350;8.718;2024-02-23T11:51:23;8.20;61.08
69324;DHT22;56470;47.350;8.718;2024-02-23T11:53:49;8.21;61.50
69324;DHT22;56470;47.350;8.718;2024-02-23T11:56:15;8.24;61.48
69324;DHT22;56470;47.350;8.718;2024-02-23T11:58:41;8.31;62.12
69324;DHT22;56470;47.350;8.718;2024-02-23T12:01:07;8.38;61.99
69324;DHT22;56470;47.350;8.718;2024-02-23T12:03:33;8.39;61.65
69324;DHT22;56470;47.350;8.718;2024-02-23T12:06:00;8.45;61.51
69324;DHT22;56470;47.350;8.718;2024-02-23T12:08:26;8.43;61.00
69324;DHT22;56470;47.350;8.718;2024-02-23T12:10:54;8.43;60.61
69324;DHT22;56470;47.350;8.718;2024-02-23T12:13:20;8.48;61.06
69324;DHT22;56470;47.350;8.718;2024-02-23T12:15:47;8.50;61.56
69324;DHT22;56470;47.350;8.718;2024-02-23T12:18:13;8.56;61.97
69324;DHT22;56470;47.350;8.718;2024-02-23T12:20:38;8.61;62.28
69324;DHT22;56470;47.350;8.718;2024-02-23T12:23:04;8.64;60.64
69324;DHT22;56470;47.350;8.718;2024-02-23T12:25:33;8.60;59.93
69324;DHT22;56470;47.350;8.718;2024-02-23T12:27:58;8.60;60.09
69324;DHT22;56470;47.350;8.718;2024-02-23T12:30:28;8.48;59.73
69324;DHT22;56470;47.350;8.718;2024-02-23T12:33:06;8.46;59.83
69324;DHT22;56470;47.350;8.718;2024-02-23T12:35:33;8.42;61.00
69324;DHT22;56470;47.350;8.718;2024-02-23T12:38:01;8.48;60.60
69324;DHT22;56470;47.350;8.718;2024-02-23T12:40:27;8.45;59.90
69324;DHT22;56470;47.350;8.718;2024-02-23T12:42:52;8.40;59.94
69324;DHT22;56470;47.350;8.718;2024-02-23T12:45:17;8.35;59.77
69324;DHT22;56470;47.350;8.718;2024-02-23T12:47:43;8.40;61.37
69324;DHT22;56470;47.350;8.718;2024-02-23T12:50:08;8.46;60.11
69324;DHT22;56470;47.350;8.718;2024-02-23T12:52:35;8.48;60.15
69324;DHT22;56470;47.350;8.718;2024-02-23T12:55:00;8.46;60.36
69324;DHT22;56470;47.350;8.718;2024-02-23T12:57:26;8.45;60.34
69324;DHT22;56470;47.350;8.718;2024-02-23T12:59:51;8.46;59.94
69324;DHT22;56470;47.350;8.718;2024-02-23T13:02:17;8.53;60.71
69324;DHT22;56470;47.350;8.718;2024-02-23T13:04:42;8.56;60.67
69324;DHT22;56470;47.350;8.718;2024-02-23T13:07:30;8.57;60.53
69324;DHT22;56470;47.350;8.718;2024-02-23T13:09:55;8.57;60.46
69324;DHT22;56470;47.350;8.718;2024-02-23T13:12:20;8.54;60.22
69324;DHT22;56470;47.350;8.718;2024-02-23T13:14:52;8.45;59.85
69324;DHT22;56470;47.350;8.718;2024-02-23T13:17:33;8.38;60.45
69324;DHT22;56470;47.350;8.718;2024-02-23T13:20:00;8.28;59.64
69324;DHT22;56470;47.350;8.718;2024-02-23T13:22:35;8.26;60.59
69324;DHT22;56470;47.350;8.718;2024-02-23T13:28:11;8.33;59.64
69324;DHT22;56470;47.350;8.718;2024-02-23T13:30:57;8.33;59.53
69324;DHT22;56470;47.350;8.718;2024-02-23T13:33:35;8.32;60.26
69324;DHT22;56470;47.350;8.718;2024-02-23T14:36:11;8.54;57.94
69324;DHT22;56470;47.350;8.718;2024-02-23T14:39:19;8.60;58.56
69324;DHT22;56470;47.350;8.718;2024-02-23T14:42:52;8.66;57.97
69324;DHT22;56470;47.350;8.718;2024-02-23T14:45:55;8.77;57.81
69324;DHT22;56470;47.350;8.718;2024-02-23T14:56:09;8.68;56.73
69324;DHT22;56470;47.350;8.718;2024-02-23T15:02:45;8.76;55.56
69324;DHT22;56470;47.350;8.718;2024-02-23T15:05:46;8.81;57.00
69324;DHT22;56470;47.350;8.718;2024-02-23T15:08:44;8.80;57.32
69324;DHT22;56470;47.350;8.718;2024-02-23T15:11:29;8.80;56.37
69324;DHT22;56470;47.350;8.718;2024-02-23T15:14:20;8.80;55.86
69324;DHT22;56470;47.350;8.718;2024-02-23T15:20:29;8.80;54.64
69324;DHT22;56470;47.350;8.718;2024-02-23T15:23:20;8.78;56.16
69324;DHT22;56470;47.350;8.718;2024-02-23T15:29:56;8.61;56.25
69324;DHT22;56470;47.350;8.718;2024-02-23T15:32:27;8.60;57.95
69324;DHT22;56470;47.350;8.718;2024-02-23T15:35:12;8.64;58.09
69324;DHT22;56470;47.350;8.718;2024-02-23T15:37:38;8.61;57.47
69324;DHT22;56470;47.350;8.718;2024-02-23T15:40:06;8.63;57.23
69324;DHT22;56470;47.350;8.718;2024-02-23T15:42:32;8.66;58.38
69324;DHT22;56470;47.350;8.718;2024-02-23T15:45:02;8.68;57.22
69324;DHT22;56470;47.350;8.718;2024-02-23T15:47:27;8.73;58.74
69324;DHT22;56470;47.350;8.718;2024-02-23T15:49:52;8.73;56.74
69324;DHT22;56470;47.350;8.718;2024-02-23T15:52:17;8.77;58.57
69324;DHT22;56470;47.350;8.718;2024-02-23T15:54:43;8.80;57.74
69324;DHT22;56470;47.350;8.718;2024-02-23T15:57:09;8.80;57.42
69324;DHT22;56470;47.350;8.718;2024-02-23T15:59:34;8.78;57.54
69324;DHT22;56470;47.350;8.718;2024-02-23T16:02:00;8.77;57.58
69324;DHT22;56470;47.350;8.718;2024-02-23T16:04:27;8.80;58.56
69324;DHT22;56470;47.350;8.718;2024-02-23T16:06:53;8.80;58.11
69324;DHT22;56470;47.350;8.718;2024-02-23T16:09:18;8.80;58.06
69324;DHT22;56470;47.350;8.718;2024-02-23T16:11:45;8.76;58.10
69324;DHT22;56470;47.350;8.718;2024-02-23T16:14:13;8.70;58.09
69324;DHT22;56470;47.350;8.718;2024-02-23T16:16:38;8.66;58.92
69324;DHT22;56470;47.350;8.718;2024-02-23T16:19:07;8.60;58.61
69324;DHT22;56470;47.350;8.718;2024-02-23T16:21:32;8.59;58.61
69324;DHT22;56470;47.350;8.718;2024-02-23T16:24:00;8.64;58.70
69324;DHT22;56470;47.350;8.718;2024-02-23T16:26:26;8.59;58.60
69324;DHT22;56470;47.350;8.718;2024-02-23T16:28:51;8.56;59.23
69324;DHT22;56470;47.350;8.718;2024-02-23T16:31:19;8.56;58.95
69324;DHT22;56470;47.350;8.718;2024-02-23T16:33:45;8.54;58.76
69324;DHT22;56470;47.350;8.718;2024-02-23T16:36:10;8.50;58.45
69324;DHT22;56470;47.350;8.718;2024-02-23T16:38:36;8.43;58.17
69324;DHT22;56470;47.350;8.718;2024-02-23T16:41:01;8.39;58.22
69324;DHT22;56470;47.350;8.718;2024-02-23T16:43:26;8.38;58.54
69324;DHT22;56470;47.350;8.718;2024-02-23T16:45:51;8.35;57.94
69324;DHT22;56470;47.350;8.718;2024-02-23T16:48:17;8.29;58.11
69324;DHT22;56470;47.350;8.718;2024-02-23T16:50:42;8.29;58.22
69324;DHT22;56470;47.350;8.718;2024-02-23T16:53:13;8.26;58.24
69324;DHT22;56470;47.350;8.718;2024-02-23T16:55:50;8.22;57.60
69324;DHT22;56470;47.350;8.718;2024-02-23T16:58:23;8.20;58.07
69324;DHT22;56470;47.350;8.718;2024-02-23T17:04:23;8.14;58.32
69324;DHT22;56470;47.350;8.718;2024-02-23T17:06:48;8.09;57.96
69324;DHT22;56470;47.350;8.718;2024-02-23T17:09:13;8.06;57.86
69324;DHT22;56470;47.350;8.718;2024-02-23T17:11:39;8.04;57.53
69324;DHT22;56470;47.350;8.718;2024-02-23T17:14:05;7.95;57.56
69324;DHT22;56470;47.350;8.718;2024-02-23T17:16:30;7.91;57.35
69324;DHT22;56470;47.350;8.718;2024-02-23T17:18:56;7.90;57.34
69324;DHT22;56470;47.350;8.718;2024-02-23T17:21:23;7.93;57.56
69324;DHT22;56470;47.350;8.718;2024-02-23T17:23:48;7.88;58.12
69324;DHT22;56470;47.350;8.718;2024-02-23T17:26:13;7.86;57.86
69324;DHT22;56470;47.350;8.718;2024-02-23T17:28:39;7.84;57.71
69324;DHT22;56470;47.350;8.718;2024-02-23T17:31:06;7.83;58.39
69324;DHT22;56470;47.350;8.718;2024-02-23T17:33:32;7.84;58.85
69324;DHT22;56470;47.350;8.718;2024-02-23T17:35:57;7.81;58.48
69324;DHT22;56470;47.350;8.718;2024-02-23T17:38:22;7.80;58.65
69324;DHT22;56470;47.350;8.718;2024-02-23T17:40:48;7.76;58.96
69324;DHT22;56470;47.350;8.718;2024-02-23T17:43:16;7.71;59.09
69324;DHT22;56470;47.350;8.718;2024-02-23T17:45:42;7.69;59.44
69324;DHT22;56470;47.350;8.718;2024-02-23T17:48:07;7.65;59.70
69324;DHT22;56470;47.350;8.718;2024-02-23T17:50:33;7.65;60.52
69324;DHT22;56470;47.350;8.718;2024-02-23T17:52:59;7.63;59.81
69324;DHT22;56470;47.350;8.718;2024-02-23T17:55:24;7.62;59.92
69324;DHT22;56470;47.350;8.718;2024-02-23T17:57:50;7.59;59.91
69324;DHT22;56470;47.350;8.718;2024-02-23T18:00:15;7.53;59.55
69324;DHT22;56470;47.350;8.718;2024-02-23T18:02:41;7.48;59.70
69324;DHT22;56470;47.350;8.718;2024-02-23T18:05:07;7.41;59.97
69324;DHT22;56470;47.350;8.718;2024-02-23T18:07:32;7.43;59.85
69324;DHT22;56470;47.350;8.718;2024-02-23T18:09:57;7.36;59.63
69324;DHT22;56470;47.350;8.718;2024-02-23T18:12:23;7.32;59.83
69324;DHT22;56470;47.350;8.718;2024-02-23T18:14:48;7.24;59.67
69324;DHT22;56470;47.350;8.718;2024-02-23T18:17:13;7.25;59.76
69324;DHT22;56470;47.350;8.718;2024-02-23T18:19:39;7.25;59.87
69324;DHT22;56470;47.350;8.718;2024-02-23T18:22:07;7.28;60.79
69324;DHT22;56470;47.350;8.718;2024-02-23T18:24:33;7.31;60.55
69324;DHT22;56470;47.350;8.718;2024-02-23T18:26:58;7.31;60.37
69324;DHT22;56470;47.350;8.718;2024-02-23T18:29:23;7.31;60.41
69324;DHT22;56470;47.350;8.718;2024-02-23T18:31:49;7.31;60.42
69324;DHT22;56470;47.350;8.718;2024-02-23T18:34:14;7.26;60.48
69324;DHT22;56470;47.350;8.718;2024-02-23T18:39:50;7.26;60.69
69324;DHT22;56470;47.350;8.718;2024-02-23T18:45:52;7.19;60.53
69324;DHT22;56470;47.350;8.718;2024-02-23T18:48:44;7.22;61.31
69324;DHT22;56470;47.350;8.718;2024-02-23T18:51:37;7.19;60.17
69324;DHT22;56470;47.350;8.718;2024-02-23T18:57:51;7.14;60.46
69324;DHT22;56470;47.350;8.718;2024-02-23T19:03:27;7.08;60.68
69324;DHT22;56470;47.350;8.718;2024-02-23T19:09:43;6.94;60.16
69324;DHT22;56470;47.350;8.718;2024-02-23T19:12:21;6.91;60.54
69324;DHT22;56470;47.350;8.718;2024-02-23T19:15:14;6.81;60.07
69324;DHT22;56470;47.350;8.718;2024-02-23T19:21:06;6.87;60.61
69324;DHT22;56470;47.350;8.718;2024-02-23T19:24:09;6.80;60.34
69324;DHT22;56470;47.350;8.718;2024-02-23T19:33:22;6.76;60.53
69324;DHT22;56470;47.350;8.718;2024-02-23T19:36:03;6.80;61.20
69324;DHT22;56470;47.350;8.718;2024-02-23T19:38:43;6.79;61.37
69324;DHT22;56470;47.350;8.718;2024-02-23T19:41:08;6.81;61.22
69324;DHT22;56470;47.350;8.718;2024-02-23T19:43:44;6.80;61.12
69324;DHT22;56470;47.350;8.718;2024-02-23T19:52:31;6.72;61.16
69324;DHT22;56470;47.350;8.718;2024-02-23T19:57:56;6.76;61.80
69324;DHT22;56470;47.350;8.718;2024-02-23T20:00:34;6.81;62.24
69324;DHT22;56470;47.350;8.718;2024-02-23T20:06:12;6.87;62.61
69324;DHT22;56470;47.350;8.718;2024-02-23T20:09:08;6.87;62.52
69324;DHT22;56470;47.350;8.718;2024-02-23T20:14:38;6.84;63.08
69324;DHT22;56470;47.350;8.718;2024-02-23T20:17:26;6.80;62.32
69324;DHT22;56470;47.350;8.718;2024-02-23T20:20:22;6.73;63.55
69324;DHT22;56470;47.350;8.718;2024-02-23T20:23:24;6.69;62.87
69324;DHT22;56470;47.350;8.718;2024-02-23T20:29:38;6.72;63.86
69324;DHT22;56470;47.350;8.718;2024-02-23T20:32:06;6.72;64.28
69324;DHT22;56470;47.350;8.718;2024-02-23T20:35:07;6.72;63.91
69324;DHT22;56470;47.350;8.718;2024-02-23T20:38:00;6.76;64.91
69324;DHT22;56470;47.350;8.718;2024-02-23T20:43:51;6.76;63.85
69324;DHT22;56470;47.350;8.718;2024-02-23T20:46:36;6.75;64.92
69324;DHT22;56470;47.350;8.718;2024-02-23T20:49:15;6.72;64.90
69324;DHT22;56470;47.350;8.718;2024-02-23T20:51:45;6.69;64.03
69324;DHT22;56470;47.350;8.718;2024-02-23T20:54:28;6.67;64.30
69324;DHT22;56470;47.350;8.718;2024-02-23T20:57:41;6.66;64.77
69324;DHT22;56470;47.350;8.718;2024-02-23T21:03:23;6.63;65.62
69324;DHT22;56470;47.350;8.718;2024-02-23T21:06:25;6.53;66.45
69324;DHT22;56470;47.350;8.718;2024-02-23T21:09:41;6.48;66.67
69324;DHT22;56470;47.350;8.718;2024-02-23T21:12:38;6.46;66.68
69324;DHT22;56470;47.350;8.718;2024-02-23T21:15:04;6.42;65.86
69324;DHT22;56470;47.350;8.718;2024-02-23T21:17:30;6.35;65.33
69324;DHT22;56470;47.350;8.718;2024-02-23T21:19:56;6.28;65.03
69324;DHT22;56470;47.350;8.718;2024-02-23T21:22:22;6.21;65.00